Time;durP1;ratioP1;P1;durP2;ratioP2;P2;SDS_P1;SDS_P2;PMS_P1;PMS_P2;Temp;Humidity;BMP_temperature;BMP_pressure;BME280_temperature;BME280_humidity;BME280_pressure;Samples;Min_cycle;Max_cycle;Signal;HPM_P1;HPM_P2
2024/03/14 00:00:17;;;;;;;12.88;8.02;;;;;;;;;;5051401;28;20017;-78
2024/03/14 00:02:46;;;;;;;10.18;7.15;;;;;;;;;;5051640;28;20101;-77
2024/03/14 00:05:14;;;;;;;9.67;7.07;;;;;;;;;;5052685;28;20032;-78
2024/03/14 00:07:40;;;;;;;9.27;6.45;;;;;;;;;;5051543;28;20271;-78
2024/03/14 00:10:06;;;;;;;8.27;5.57;;;;;;;;;;5052692;28;20108;-78
2024/03/14 00:12:32;;;;;;;9.18;6.03;;;;;;;;;;5053014;28;20056;-78
2024/03/14 00:14:58;;;;;;;9.52;6.65;;;;;;;;;;5051509;28;20032;-77
2024/03/14 00:17:25;;;;;;;9.10;6.40;;;;;;;;;;5051314;28;20025;-77
2024/03/14 00:19:51;;;;;;;10.07;6.63;;;;;;;;;;5051420;28;20025;-76
2024/03/14 00:22:17;;;;;;;11.65;6.72;;;;;;;;;;5052376;28;20033;-77
2024/03/14 00:24:43;;;;;;;11.10;7.32;;;;;;;;;;5052620;28;20056;-77
2024/03/14 00:27:09;;;;;;;8.77;6.03;;;;;;;;;;5050725;28;20124;-76
2024/03/14 00:29:35;;;;;;;10.23;6.72;;;;;;;;;;5051218;28;20457;-76
2024/03/14 00:32:02;;;;;;;10.32;6.22;;;;;;;;;;5050779;28;20029;-77
2024/03/14 00:34:28;;;;;;;8.98;6.07;;;;;;;;;;5050813;28;20028;-77
2024/03/14 00:36:55;;;;;;;12.10;6.65;;;;;;;;;;5052061;28;20455;-78
2024/03/14 00:39:24;;;;;;;11.00;6.40;;;;;;;;;;5050896;28;20136;-77
2024/03/14 00:41:50;;;;;;;10.00;5.35;;;;;;;;;;5052213;28;20035;-78
2024/03/14 00:44:17;;;;;;;10.77;5.95;;;;;;;;;;5050818;28;20033;-78
2024/03/14 00:46:43;;;;;;;9.00;6.15;;;;;;;;;;5050962;28;20380;-77
2024/03/14 00:49:10;;;;;;;8.20;5.68;;;;;;;;;;5051959;28;20027;-78
2024/03/14 00:51:36;;;;;;;12.00;6.97;;;;;;;;;;5052043;28;20472;-77
2024/03/14 00:54:02;;;;;;;8.32;5.97;;;;;;;;;;5050764;28;20032;-77
2024/03/14 00:56:28;;;;;;;16.30;7.05;;;;;;;;;;5050484;28;20033;-77
2024/03/14 00:58:58;;;;;;;9.75;6.20;;;;;;;;;;5050862;28;20025;-76
2024/03/14 01:01:25;;;;;;;9.85;7.10;;;;;;;;;;5050573;28;20021;-76
2024/03/14 01:03:54;;;;;;;12.35;7.07;;;;;;;;;;5050841;28;20465;-77
2024/03/14 01:06:21;;;;;;;11.43;6.25;;;;;;;;;;5050568;28;20029;-78
2024/03/14 01:08:48;;;;;;;8.90;6.25;;;;;;;;;;5050784;28;20368;-79
2024/03/14 01:11:18;;;;;;;9.13;5.65;;;;;;;;;;5051540;28;20377;-78
2024/03/14 01:13:44;;;;;;;11.38;6.75;;;;;;;;;;5051881;28;20034;-78
2024/03/14 01:16:11;;;;;;;10.73;6.47;;;;;;;;;;5050405;28;20411;-77
2024/03/14 01:18:37;;;;;;;11.15;6.68;;;;;;;;;;5050611;28;20024;-77
2024/03/14 01:21:08;;;;;;;8.50;5.63;;;;;;;;;;5051662;28;20461;-77
2024/03/14 01:23:34;;;;;;;10.38;6.30;;;;;;;;;;5050315;28;20049;-76
2024/03/14 01:26:03;;;;;;;9.77;6.47;;;;;;;;;;5052231;28;20100;-78
2024/03/14 01:28:29;;;;;;;10.00;6.57;;;;;;;;;;5050493;28;20025;-77
2024/03/14 01:30:58;;;;;;;10.30;7.60;;;;;;;;;;5050138;28;20021;-76
2024/03/14 01:33:24;;;;;;;8.70;6.68;;;;;;;;;;5050158;28;20040;-77
2024/03/14 01:35:54;;;;;;;10.82;6.68;;;;;;;;;;5050483;28;20032;-78
2024/03/14 01:38:20;;;;;;;9.50;6.82;;;;;;;;;;5050156;28;20063;-78
2024/03/14 01:40:47;;;;;;;8.82;6.63;;;;;;;;;;5050190;28;20024;-77
2024/03/14 01:43:13;;;;;;;9.23;6.75;;;;;;;;;;5050144;28;20064;-77
2024/03/14 01:45:40;;;;;;;10.45;7.53;;;;;;;;;;5050398;28;20032;-77
2024/03/14 01:48:06;;;;;;;12.15;8.35;;;;;;;;;;5053595;28;20024;-77
2024/03/14 01:50:33;;;;;;;9.98;7.40;;;;;;;;;;5054159;28;20028;-77
2024/03/14 01:52:59;;;;;;;10.80;7.95;;;;;;;;;;5054349;28;20063;-78
2024/03/14 01:55:26;;;;;;;12.32;8.98;;;;;;;;;;5054604;28;20029;-77
2024/03/14 01:57:53;;;;;;;10.43;8.70;;;;;;;;;;5054169;28;20028;-77
2024/03/14 02:00:24;;;;;;;13.35;8.65;;;;;;;;;;5053831;28;20025;-77
2024/03/14 02:02:50;;;;;;;14.82;9.88;;;;;;;;;;5053915;28;20499;-77
2024/03/14 02:05:28;;;;;;;13.38;9.50;;;;;;;;;;5053678;28;20104;-76
2024/03/14 02:07:54;;;;;;;15.23;10.45;;;;;;;;;;5053804;28;20032;-76
2024/03/14 02:10:24;;;;;;;13.70;9.60;;;;;;;;;;5053534;28;20025;-76
2024/03/14 02:12:53;;;;;;;17.17;10.75;;;;;;;;;;5054930;28;20029;-77
2024/03/14 02:15:19;;;;;;;22.60;12.20;;;;;;;;;;5054648;28;20028;-77
2024/03/14 02:17:45;;;;;;;15.13;11.27;;;;;;;;;;5053610;28;20469;-77
2024/03/14 02:20:16;;;;;;;17.55;11.63;;;;;;;;;;5053250;28;20043;-76
2024/03/14 02:22:42;;;;;;;17.90;13.10;;;;;;;;;;5053736;28;20350;-77
2024/03/14 02:25:08;;;;;;;19.35;13.85;;;;;;;;;;5052702;28;20055;-78
2024/03/14 02:27:34;;;;;;;19.60;14.95;;;;;;;;;;5054563;28;20114;-77
2024/03/14 02:30:02;;;;;;;19.80;13.63;;;;;;;;;;5054714;28;20032;-77
2024/03/14 02:32:29;;;;;;;20.13;14.98;;;;;;;;;;5053228;28;20025;-77
2024/03/14 02:34:55;;;;;;;19.35;13.80;;;;;;;;;;5053204;28;20032;-76
2024/03/14 02:37:21;;;;;;;24.25;16.55;;;;;;;;;;5052978;28;20021;-77
2024/03/14 02:39:48;;;;;;;22.88;16.58;;;;;;;;;;5053109;28;20119;-77
2024/03/14 02:42:14;;;;;;;21.88;15.27;;;;;;;;;;5054216;28;20025;-77
2024/03/14 02:44:40;;;;;;;21.08;15.77;;;;;;;;;;5052682;28;20039;-77
2024/03/14 02:47:09;;;;;;;24.95;18.52;;;;;;;;;;5052748;28;20033;-76
2024/03/14 02:49:35;;;;;;;24.00;17.60;;;;;;;;;;5052966;28;20443;-76
2024/03/14 02:52:01;;;;;;;25.33;17.25;;;;;;;;;;5054037;28;20255;-78
2024/03/14 02:54:30;;;;;;;23.63;17.38;;;;;;;;;;5053866;28;20468;-76
2024/03/14 02:56:56;;;;;;;27.20;17.83;;;;;;;;;;5052582;28;20017;-77
2024/03/14 02:59:23;;;;;;;25.02;17.10;;;;;;;;;;5052537;28;20032;-77
2024/03/14 03:01:49;;;;;;;24.23;16.90;;;;;;;;;;5054200;28;20500;-78
2024/03/14 03:04:15;;;;;;;23.75;17.25;;;;;;;;;;5052448;28;20393;-77
2024/03/14 03:06:48;;;;;;;23.15;16.42;;;;;;;;;;5052668;28;20025;-77
2024/03/14 03:09:15;;;;;;;20.58;16.33;;;;;;;;;;5053754;28;20031;-77
2024/03/14 03:11:44;;;;;;;21.55;16.90;;;;;;;;;;5053851;28;20040;-77
2024/03/14 03:14:10;;;;;;;25.03;17.47;;;;;;;;;;5052316;28;20111;-77
2024/03/14 03:16:37;;;;;;;21.45;15.73;;;;;;;;;;5052514;28;20029;-76
2024/03/14 03:19:04;;;;;;;24.05;16.20;;;;;;;;;;5053538;28;20037;-78
2024/03/14 03:21:30;;;;;;;23.08;16.95;;;;;;;;;;5052461;28;20048;-78
2024/03/14 03:23:56;;;;;;;23.23;16.75;;;;;;;;;;5052159;28;20477;-77
2024/03/14 03:26:25;;;;;;;20.70;15.68;;;;;;;;;;5052127;28;20063;-75
2024/03/14 03:28:51;;;;;;;21.17;15.73;;;;;;;;;;5053539;28;20017;-77
2024/03/14 03:31:17;;;;;;;23.00;17.00;;;;;;;;;;5052000;28;20170;-77
2024/03/14 03:33:43;;;;;;;22.48;15.75;;;;;;;;;;5052159;28;20028;-76
2024/03/14 03:36:09;;;;;;;20.55;16.10;;;;;;;;;;5053480;28;20040;-77
2024/03/14 03:38:39;;;;;;;22.75;16.90;;;;;;;;;;5053131;28;20105;-78
2024/03/14 03:41:12;;;;;;;22.57;16.40;;;;;;;;;;5051720;28;20025;-77
2024/03/14 03:43:38;;;;;;;22.15;15.60;;;;;;;;;;5051980;28;20028;-75
2024/03/14 03:46:06;;;;;;;22.50;17.30;;;;;;;;;;5051660;28;20032;-75
2024/03/14 03:48:33;;;;;;;24.23;17.30;;;;;;;;;;5051880;28;20025;-75
2024/03/14 03:50:59;;;;;;;22.30;18.05;;;;;;;;;;5051734;28;20024;-75
2024/03/14 03:53:25;;;;;;;23.38;18.42;;;;;;;;;;5052861;28;20037;-75
2024/03/14 03:55:52;;;;;;;23.38;17.73;;;;;;;;;;5053021;28;20078;-75
2024/03/14 03:58:18;;;;;;;24.45;17.67;;;;;;;;;;5051522;28;20029;-75
2024/03/14 04:00:44;;;;;;;24.25;16.83;;;;;;;;;;5051724;28;20024;-75
2024/03/14 04:03:16;;;;;;;23.65;17.65;;;;;;;;;;5051481;28;20502;-74
2024/03/14 04:05:43;;;;;;;23.08;16.88;;;;;;;;;;5051719;28;20025;-74
2024/03/14 04:08:09;;;;;;;24.55;17.60;;;;;;;;;;5052864;28;20103;-74
2024/03/14 04:10:35;;;;;;;24.15;17.80;;;;;;;;;;5052578;28;20021;-75
2024/03/14 04:13:04;;;;;;;24.75;17.83;;;;;;;;;;5052787;28;20492;-74
2024/03/14 04:15:30;;;;;;;22.60;17.00;;;;;;;;;;5051407;28;20025;-75
2024/03/14 04:17:57;;;;;;;27.27;18.33;;;;;;;;;;5051147;28;20029;-75
2024/03/14 04:20:27;;;;;;;25.85;17.40;;;;;;;;;;5052451;28;20515;-77
2024/03/14 04:22:56;;;;;;;22.60;17.30;;;;;;;;;;5052417;28;20477;-76
2024/03/14 04:25:22;;;;;;;28.45;18.58;;;;;;;;;;5052421;28;20037;-77
2024/03/14 04:27:51;;;;;;;27.00;19.15;;;;;;;;;;5050988;28;20028;-76
2024/03/14 04:30:17;;;;;;;23.92;17.92;;;;;;;;;;5052024;28;20539;-75
2024/03/14 04:32:47;;;;;;;21.65;17.08;;;;;;;;;;5051063;28;20025;-75
2024/03/14 04:35:15;;;;;;;;;;;;;;;;;;5051357;28;20021;-76
2024/03/14 04:37:42;;;;;;;21.35;16.02;;;;;;;;;;5051106;28;20401;-77
2024/03/14 04:40:12;;;;;;;26.33;17.67;;;;;;;;;;5052103;28;20078;-76
2024/03/14 04:42:41;;;;;;;25.75;17.08;;;;;;;;;;5052481;28;20135;-76
2024/03/14 04:45:12;;;;;;;24.02;17.38;;;;;;;;;;5050873;28;20035;-77
2024/03/14 04:47:39;;;;;;;26.80;16.67;;;;;;;;;;5051056;28;20021;-77
2024/03/14 04:50:09;;;;;;;23.42;17.27;;;;;;;;;;5050686;28;20075;-77
2024/03/14 04:52:35;;;;;;;23.65;17.55;;;;;;;;;;5051037;28;20171;-77
2024/03/14 04:55:05;;;;;;;23.48;18.02;;;;;;;;;;5052243;28;20052;-77
2024/03/14 04:57:31;;;;;;;27.87;18.50;;;;;;;;;;5050815;28;20017;-77
2024/03/14 04:59:58;;;;;;;26.65;18.50;;;;;;;;;;5050812;28;20464;-77
2024/03/14 05:02:24;;;;;;;21.77;16.95;;;;;;;;;;5050583;28;20071;-75
2024/03/14 05:04:49;;;;;;;24.05;17.27;;;;;;;;;;5052056;28;20060;-76
2024/03/14 05:07:15;;;;;;;24.48;16.90;;;;;;;;;;5051866;28;20068;-77
2024/03/14 05:09:43;;;;;;;23.45;18.33;;;;;;;;;;5050695;28;20480;-77
2024/03/14 05:12:09;;;;;;;22.45;16.92;;;;;;;;;;5050497;28;20070;-78
2024/03/14 05:14:36;;;;;;;26.13;16.67;;;;;;;;;;5050898;28;20124;-77
2024/03/14 05:17:03;;;;;;;25.13;18.48;;;;;;;;;;5050686;28;20036;-76
2024/03/14 05:19:29;;;;;;;23.65;16.13;;;;;;;;;;5050655;28;20029;-76
2024/03/14 05:21:55;;;;;;;20.60;14.95;;;;;;;;;;5053954;28;20021;-76
2024/03/14 05:24:21;;;;;;;24.40;16.42;;;;;;;;;;5054262;28;20059;-76
2024/03/14 05:26:47;;;;;;;21.52;15.70;;;;;;;;;;5054609;28;20516;-76
2024/03/14 05:29:13;;;;;;;23.90;16.10;;;;;;;;;;5037731;28;20241;-76
2024/03/14 05:31:39;;;;;;;21.25;16.60;;;;;;;;;;5054539;28;20121;-77
2024/03/14 05:34:06;;;;;;;22.08;16.15;;;;;;;;;;5055175;28;20395;-77
2024/03/14 05:36:32;;;;;;;20.63;15.30;;;;;;;;;;5054421;28;20112;-77
2024/03/14 05:38:58;;;;;;;23.45;16.35;;;;;;;;;;5054430;28;20021;-77
2024/03/14 05:41:25;;;;;;;18.58;15.20;;;;;;;;;;5053682;28;20033;-77
2024/03/14 05:43:51;;;;;;;24.23;15.68;;;;;;;;;;5054341;28;20518;-77
2024/03/14 05:46:17;;;;;;;18.88;13.68;;;;;;;;;;5055159;28;20024;-77
2024/03/14 05:48:43;;;;;;;23.38;15.93;;;;;;;;;;5055371;28;20021;-78
2024/03/14 05:51:09;;;;;;;20.35;15.35;;;;;;;;;;5053979;28;20029;-76
2024/03/14 05:53:35;;;;;;;21.70;15.43;;;;;;;;;;5054063;28;20075;-77
2024/03/14 05:56:02;;;;;;;22.23;15.32;;;;;;;;;;5054050;28;20086;-78
2024/03/14 05:58:31;;;;;;;22.13;13.88;;;;;;;;;;5053883;28;20106;-77
2024/03/14 06:00:57;;;;;;;21.58;15.05;;;;;;;;;;5055064;28;20028;-77
2024/03/14 06:03:24;;;;;;;18.65;14.20;;;;;;;;;;5053715;28;20025;-77
2024/03/14 06:05:52;;;;;;;18.30;13.98;;;;;;;;;;5053906;28;20052;-77
2024/03/14 06:08:18;;;;;;;19.83;13.55;;;;;;;;;;5053638;28;20025;-78
2024/03/14 06:10:44;;;;;;;19.00;14.07;;;;;;;;;;5054010;28;20461;-78
2024/03/14 06:13:10;;;;;;;21.88;14.40;;;;;;;;;;5053591;28;20036;-77
2024/03/14 06:15:37;;;;;;;18.10;13.20;;;;;;;;;;5054131;28;20021;-77
2024/03/14 06:18:05;;;;;;;19.23;14.50;;;;;;;;;;5054403;28;20029;-79
2024/03/14 06:20:32;;;;;;;21.02;13.07;;;;;;;;;;5054081;28;20025;-78
2024/03/14 06:22:58;;;;;;;19.15;13.57;;;;;;;;;;5053726;28;20033;-79
2024/03/14 06:25:24;;;;;;;17.38;13.40;;;;;;;;;;5053735;28;20069;-78
2024/03/14 06:27:52;;;;;;;17.13;12.10;;;;;;;;;;5053716;28;20029;-79
2024/03/14 06:30:18;;;;;;;19.88;12.70;;;;;;;;;;5054863;28;20135;-78
2024/03/14 06:32:47;;;;;;;17.83;12.95;;;;;;;;;;5055182;28;20025;-78
2024/03/14 06:35:13;;;;;;;15.33;11.57;;;;;;;;;;5054087;28;20106;-78
2024/03/14 06:37:41;;;;;;;17.02;11.88;;;;;;;;;;5055239;28;20024;-78
2024/03/14 06:40:08;;;;;;;14.50;10.75;;;;;;;;;;5054184;28;20032;-78
2024/03/14 06:42:34;;;;;;;20.38;12.30;;;;;;;;;;5054432;28;20040;-79
2024/03/14 06:45:03;;;;;;;19.05;12.40;;;;;;;;;;5054448;28;20377;-79
2024/03/14 06:47:33;;;;;;;16.38;11.38;;;;;;;;;;5054734;28;20060;-78
2024/03/14 06:50:00;;;;;;;14.40;10.32;;;;;;;;;;5053346;28;20461;-77
2024/03/14 06:52:26;;;;;;;13.52;10.13;;;;;;;;;;5054271;28;20022;-77
2024/03/14 06:54:53;;;;;;;12.88;9.32;;;;;;;;;;5053183;28;20129;-76
2024/03/14 06:57:19;;;;;;;15.85;10.15;;;;;;;;;;5053276;28;20096;-77
2024/03/14 06:59:48;;;;;;;14.13;9.45;;;;;;;;;;5053179;28;20021;-77
2024/03/14 07:02:17;;;;;;;14.68;9.55;;;;;;;;;;5052751;28;20029;-78
2024/03/14 07:04:43;;;;;;;12.77;8.52;;;;;;;;;;5052885;28;20029;-78
2024/03/14 07:07:11;;;;;;;12.65;8.65;;;;;;;;;;5052585;28;20569;-78
2024/03/14 07:09:37;;;;;;;11.80;8.93;;;;;;;;;;5052853;28;20074;-77
2024/03/14 07:12:05;;;;;;;11.95;8.20;;;;;;;;;;5052783;28;20028;-78
2024/03/14 07:14:31;;;;;;;10.90;7.35;;;;;;;;;;5052322;28;20435;-78
2024/03/14 07:16:57;;;;;;;9.00;7.45;;;;;;;;;;5052598;28;20029;-78
2024/03/14 07:19:23;;;;;;;11.10;7.43;;;;;;;;;;5052316;28;20025;-76
2024/03/14 07:21:56;;;;;;;10.77;7.47;;;;;;;;;;5053861;28;20032;-75
2024/03/14 07:24:23;;;;;;;12.10;8.38;;;;;;;;;;5052094;28;20136;-75
2024/03/14 07:26:49;;;;;;;11.35;8.25;;;;;;;;;;5052535;28;20252;-75
2024/03/14 07:29:16;;;;;;;11.70;7.78;;;;;;;;;;5052105;28;20021;-76
2024/03/14 07:31:47;;;;;;;9.98;7.90;;;;;;;;;;5052315;28;20075;-76
2024/03/14 07:34:15;;;;;;;13.90;8.43;;;;;;;;;;5053339;28;20055;-76
2024/03/14 07:36:41;;;;;;;12.43;8.05;;;;;;;;;;5052189;28;20025;-76
2024/03/14 07:39:10;;;;;;;11.48;8.35;;;;;;;;;;5052249;28;20025;-76
2024/03/14 07:41:39;;;;;;;9.07;6.78;;;;;;;;;;5051955;28;20075;-76
2024/03/14 07:44:05;;;;;;;11.18;7.15;;;;;;;;;;5052555;28;20025;-76
2024/03/14 07:46:32;;;;;;;11.07;7.30;;;;;;;;;;5053106;28;20461;-77
2024/03/14 07:48:58;;;;;;;11.02;7.68;;;;;;;;;;5053071;28;20056;-75
2024/03/14 07:51:26;;;;;;;14.63;8.38;;;;;;;;;;5051623;28;20389;-75
2024/03/14 07:53:52;;;;;;;11.45;7.45;;;;;;;;;;5053093;28;20025;-75
2024/03/14 07:56:18;;;;;;;9.85;5.07;;;;;;;;;;5052949;28;20040;-75
2024/03/14 07:58:46;;;;;;;9.32;5.90;;;;;;;;;;5053173;28;20017;-76
2024/03/14 08:01:18;;;;;;;9.18;6.28;;;;;;;;;;5052924;28;20021;-75
2024/03/14 08:03:47;;;;;;;7.50;5.53;;;;;;;;;;5053344;28;20035;-76
2024/03/14 08:06:19;;;;;;;7.40;3.70;;;;;;;;;;5144771;27;20455;-75
2024/03/14 08:08:45;;;;;;;14.10;4.18;;;;;;;;;;5130865;28;20055;-76
2024/03/14 08:11:12;;;;;;;6.70;4.22;;;;;;;;;;5129231;28;20026;-75
2024/03/14 08:13:39;;;;;;;8.43;3.63;;;;;;;;;;5129199;28;20027;-75
2024/03/14 08:16:22;;;;;;;5.95;3.30;;;;;;;;;;5128935;28;20035;-74
2024/03/14 08:18:48;;;;;;;7.15;4.72;;;;;;;;;;5128835;28;20028;-74
2024/03/14 08:21:14;;;;;;;8.70;3.00;;;;;;;;;;5128763;28;20023;-73
2024/03/14 08:23:45;;;;;;;7.65;4.20;;;;;;;;;;5128729;28;20111;-74
2024/03/14 08:26:12;;;;;;;7.45;5.15;;;;;;;;;;5128813;28;20032;-74
2024/03/14 08:28:41;;;;;;;10.77;5.97;;;;;;;;;;5130010;27;20064;-75
2024/03/14 08:31:14;;;;;;;4.90;2.60;;;;;;;;;;5129122;28;20107;-75
2024/03/14 08:33:40;;;;;;;5.28;2.90;;;;;;;;;;5129045;28;20115;-74
2024/03/14 08:36:07;;;;;;;4.95;2.65;;;;;;;;;;5130148;27;20027;-75
2024/03/14 08:38:34;;;;;;;7.55;4.13;;;;;;;;;;5130528;27;20038;-75
2024/03/14 08:41:02;;;;;;;6.68;4.65;;;;;;;;;;5128905;28;20379;-76
2024/03/14 08:43:28;;;;;;;6.90;3.88;;;;;;;;;;5129780;27;20046;-75
2024/03/14 08:45:55;;;;;;;7.90;3.10;;;;;;;;;;5128571;28;20028;-75
2024/03/14 08:48:21;;;;;;;5.15;2.42;;;;;;;;;;5128298;28;20020;-75
2024/03/14 08:50:48;;;;;;;6.40;4.22;;;;;;;;;;5129815;27;20023;-75
2024/03/14 08:53:15;;;;;;;7.97;4.18;;;;;;;;;;5129837;27;20023;-75
2024/03/14 08:55:52;;;;;;;5.88;4.18;;;;;;;;;;5129643;28;20104;-76
2024/03/14 08:58:18;;;;;;;5.35;2.05;;;;;;;;;;5129271;28;20066;-74
2024/03/14 09:00:44;;;;;;;6.72;4.53;;;;;;;;;;5129627;27;20015;-74
2024/03/14 09:03:10;;;;;;;5.70;3.25;;;;;;;;;;5128340;28;20030;-74
2024/03/14 09:05:37;;;;;;;5.80;3.50;;;;;;;;;;5127703;28;20380;-75
2024/03/14 09:08:04;;;;;;;8.82;4.00;;;;;;;;;;5129451;27;20370;-75
2024/03/14 09:10:33;;;;;;;7.82;5.38;;;;;;;;;;5127916;28;20020;-75
2024/03/14 09:12:59;;;;;;;8.70;4.60;;;;;;;;;;5128105;28;20023;-75
2024/03/14 09:15:26;;;;;;;8.30;4.95;;;;;;;;;;5127265;28;20121;-75
2024/03/14 09:17:52;;;;;;;6.22;2.40;;;;;;;;;;5113708;28;20019;-75
2024/03/14 09:20:21;;;;;;;4.03;1.80;;;;;;;;;;5115355;28;20031;-75
2024/03/14 09:22:56;;;;;;;7.28;3.25;;;;;;;;;;5115273;27;20019;-75
2024/03/14 09:25:23;;;;;;;9.57;4.95;;;;;;;;;;5113937;28;20024;-76
2024/03/14 09:27:49;;;;;;;4.68;2.28;;;;;;;;;;5114200;28;20024;-75
2024/03/14 09:30:17;;;;;;;7.00;4.90;;;;;;;;;;5114107;28;20024;-76
2024/03/14 09:32:43;;;;;;;9.02;4.18;;;;;;;;;;5115427;28;20662;-76
2024/03/14 09:35:15;;;;;;;9.50;4.63;;;;;;;;;;5115139;28;20484;-76
2024/03/14 09:37:43;;;;;;;6.45;4.07;;;;;;;;;;5115066;28;20020;-75
2024/03/14 09:40:13;;;;;;;5.65;3.85;;;;;;;;;;5113754;28;20020;-76
2024/03/14 09:42:47;;;;;;;8.27;3.88;;;;;;;;;;5114949;28;20428;-75
2024/03/14 09:45:14;;;;;;;7.07;5.30;;;;;;;;;;5113726;28;20161;-76
2024/03/14 09:47:41;;;;;;;6.60;3.53;;;;;;;;;;5113465;28;20081;-75
2024/03/14 09:50:26;;;;;;;9.65;4.70;;;;;;;;;;5113708;28;20024;-74
2024/03/14 09:52:54;;;;;;;5.35;3.65;;;;;;;;;;5113628;28;20035;-75
2024/03/14 09:55:20;;;;;;;5.30;2.38;;;;;;;;;;5114618;27;20023;-75
2024/03/14 09:57:46;;;;;;;7.80;3.00;;;;;;;;;;5113551;28;20028;-76
2024/03/14 10:00:19;;;;;;;5.30;2.28;;;;;;;;;;5113414;28;20474;-75
2024/03/14 10:02:47;;;;;;;7.07;3.88;;;;;;;;;;5114758;28;20107;-75
2024/03/14 10:05:13;;;;;;;6.97;2.67;;;;;;;;;;5114556;28;20070;-75
2024/03/14 10:07:39;;;;;;;5.72;2.90;;;;;;;;;;5113164;28;20031;-76
2024/03/14 10:10:06;;;;;;;5.20;2.75;;;;;;;;;;5113613;28;20023;-76
2024/03/14 10:12:32;;;;;;;5.05;1.90;;;;;;;;;;5114944;28;20020;-76
2024/03/14 10:15:16;;;;;;;4.72;2.65;;;;;;;;;;5113262;28;20072;-78
2024/03/14 10:17:42;;;;;;;7.45;3.97;;;;;;;;;;5112993;28;20024;-77
2024/03/14 10:20:12;;;;;;;3.85;2.33;;;;;;;;;;5113160;28;20020;-76
2024/03/14 10:22:38;;;;;;;6.68;3.28;;;;;;;;;;5112909;28;20131;-76
2024/03/14 10:25:05;;;;;;;4.00;1.92;;;;;;;;;;5112959;28;20363;-77
2024/03/14 10:27:32;;;;;;;6.15;2.40;;;;;;;;;;5113216;28;20498;-76
2024/03/14 10:29:59;;;;;;;8.00;4.05;;;;;;;;;;5112722;28;20030;-76
2024/03/14 10:32:25;;;;;;;7.25;3.30;;;;;;;;;;5112969;28;20114;-76
2024/03/14 10:34:55;;;;;;;7.80;4.10;;;;;;;;;;5112898;28;20074;-75
2024/03/14 10:37:22;;;;;;;;;;;;;;;;;;5113323;28;20023;-75
2024/03/14 10:39:54;;;;;;;6.13;3.30;;;;;;;;;;5114205;28;19903;-77
2024/03/14 10:42:23;;;;;;;4.32;2.28;;;;;;;;;;5114187;28;20016;-76
2024/03/14 10:44:50;;;;;;;7.32;3.20;;;;;;;;;;5112735;28;20061;-77
2024/03/14 10:47:18;;;;;;;6.45;2.80;;;;;;;;;;5114123;28;20016;-76
2024/03/14 10:49:46;;;;;;;4.38;2.50;;;;;;;;;;5112778;28;20020;-77
2024/03/14 10:52:17;;;;;;;4.50;2.58;;;;;;;;;;5112401;28;20039;-76
2024/03/14 10:54:47;;;;;;;6.43;3.17;;;;;;;;;;5111913;28;20136;-76
2024/03/14 10:57:16;;;;;;;8.68;3.40;;;;;;;;;;5112354;28;20110;-76
2024/03/14 10:59:44;;;;;;;4.40;2.88;;;;;;;;;;5112029;28;20020;-76
2024/03/14 11:02:14;;;;;;;4.22;2.08;;;;;;;;;;5112294;28;20028;-77
2024/03/14 11:04:40;;;;;;;5.15;3.45;;;;;;;;;;5112970;28;20039;-77
2024/03/14 11:07:10;;;;;;;7.00;3.40;;;;;;;;;;5113228;28;20027;-76
2024/03/14 11:09:39;;;;;;;4.88;2.55;;;;;;;;;;5111699;28;20046;-76
2024/03/14 11:12:08;;;;;;;5.07;2.85;;;;;;;;;;5113154;28;20043;-77
2024/03/14 11:14:37;;;;;;;5.25;2.08;;;;;;;;;;5111541;28;20055;-77
2024/03/14 11:17:04;;;;;;;3.70;2.33;;;;;;;;;;5113402;28;20103;-77
2024/03/14 11:19:35;;;;;;;8.23;2.95;;;;;;;;;;5113049;28;20024;-77
2024/03/14 11:22:01;;;;;;;5.25;2.08;;;;;;;;;;5111876;28;20496;-77
2024/03/14 11:24:30;;;;;;;4.25;2.15;;;;;;;;;;5111601;28;20027;-77
2024/03/14 11:26:58;;;;;;;5.55;2.75;;;;;;;;;;5111955;28;20020;-77
2024/03/14 11:29:25;;;;;;;4.68;2.70;;;;;;;;;;5111734;28;20024;-77
2024/03/14 11:32:11;;;;;;;9.52;1.83;;;;;;;;;;5111428;28;20020;-77
2024/03/14 11:34:37;;;;;;;3.90;1.60;;;;;;;;;;5111362;28;20032;-77
2024/03/14 11:37:03;;;;;;;4.55;2.28;;;;;;;;;;5111391;28;20362;-77
2024/03/14 11:39:30;;;;;;;2.92;1.85;;;;;;;;;;5111121;28;20028;-77
2024/03/14 11:42:11;;;;;;;5.70;3.15;;;;;;;;;;5111514;28;20031;-76
2024/03/14 11:44:47;;;;;;;4.22;2.70;;;;;;;;;;5111226;28;20467;-76
2024/03/14 11:47:15;;;;;;;4.70;2.55;;;;;;;;;;5111376;28;20020;-77
2024/03/14 11:49:46;;;;;;;3.40;1.38;;;;;;;;;;5111242;28;20072;-77
2024/03/14 11:52:15;;;;;;;6.10;2.97;;;;;;;;;;5111461;28;20032;-77
2024/03/14 11:54:41;;;;;;;3.92;1.65;;;;;;;;;;5112510;28;20110;-77
2024/03/14 11:57:08;;;;;;;4.38;1.70;;;;;;;;;;5111366;28;20042;-76
2024/03/14 11:59:38;;;;;;;2.85;1.50;;;;;;;;;;5111136;28;20076;-77
2024/03/14 12:02:04;;;;;;;2.83;1.60;;;;;;;;;;5112693;28;20018;-76
2024/03/14 12:04:30;;;;;;;3.10;1.35;;;;;;;;;;5112052;28;20044;-76
2024/03/14 12:06:58;;;;;;;5.22;2.70;;;;;;;;;;5111078;28;20027;-77
2024/03/14 12:09:30;;;;;;;5.20;2.40;;;;;;;;;;5112486;28;20019;-76
2024/03/14 12:11:56;;;;;;;3.42;1.58;;;;;;;;;;5111288;28;20049;-76
2024/03/14 12:14:22;;;;;;;5.35;2.08;;;;;;;;;;5111288;28;20031;-76
2024/03/14 12:16:49;;;;;;;2.63;1.55;;;;;;;;;;5112405;28;20059;-77
2024/03/14 12:19:16;;;;;;;3.17;1.40;;;;;;;;;;5111184;28;20020;-77
2024/03/14 12:21:42;;;;;;;3.80;2.22;;;;;;;;;;5111266;28;20024;-78
2024/03/14 12:24:13;;;;;;;3.28;1.50;;;;;;;;;;5111101;28;20528;-77
2024/03/14 12:26:39;;;;;;;4.75;2.35;;;;;;;;;;5110923;28;20383;-76
2024/03/14 12:29:05;;;;;;;3.42;1.77;;;;;;;;;;5111080;28;20020;-76
2024/03/14 12:31:32;;;;;;;4.57;2.58;;;;;;;;;;5110885;28;20020;-76
2024/03/14 12:33:59;;;;;;;4.97;2.80;;;;;;;;;;5112493;28;20511;-78
2024/03/14 12:36:32;;;;;;;3.88;1.73;;;;;;;;;;5112213;28;20416;-78
2024/03/14 12:38:58;;;;;;;4.82;2.25;;;;;;;;;;5112497;28;20024;-77
2024/03/14 12:41:24;;;;;;;3.35;1.77;;;;;;;;;;5111051;28;20486;-77
2024/03/14 12:43:52;;;;;;;3.28;1.30;;;;;;;;;;5111925;28;20550;-76
2024/03/14 12:46:22;;;;;;;5.75;2.45;;;;;;;;;;5110982;28;20050;-76
2024/03/14 12:48:49;;;;;;;4.38;2.17;;;;;;;;;;5110804;28;20035;-76
2024/03/14 12:51:22;;;;;;;2.28;1.23;;;;;;;;;;5112018;28;20048;-77
2024/03/14 12:53:58;;;;;;;5.32;2.30;;;;;;;;;;5115278;28;20409;-76
2024/03/14 12:56:28;;;;;;;4.70;2.00;;;;;;;;;;5115108;28;20130;-77
2024/03/14 12:58:54;;;;;;;2.90;1.13;;;;;;;;;;5116300;28;20020;-77
2024/03/14 13:01:29;;;;;;;3.67;1.77;;;;;;;;;;5115986;28;20027;-77
2024/03/14 13:03:59;;;;;;;5.30;2.53;;;;;;;;;;5114174;28;20028;-78
2024/03/14 13:06:27;;;;;;;8.25;2.50;;;;;;;;;;5115784;28;20089;-76
2024/03/14 13:09:15;;;;;;;3.78;2.00;;;;;;;;;;5115648;28;20098;-77
2024/03/14 13:12:01;;;;;;;3.55;1.80;;;;;;;;;;5115619;28;20019;-77
2024/03/14 13:14:27;;;;;;;3.75;1.63;;;;;;;;;;5115699;28;20031;-77
2024/03/14 13:16:59;;;;;;;4.40;1.92;;;;;;;;;;5115172;28;20129;-77
2024/03/14 13:19:25;;;;;;;3.25;1.67;;;;;;;;;;5114058;28;20491;-76
2024/03/14 13:21:52;;;;;;;6.13;1.73;;;;;;;;;;5113715;28;20028;-76
2024/03/14 13:24:19;;;;;;;3.10;1.30;;;;;;;;;;5113942;28;20110;-77
2024/03/14 13:26:55;;;;;;;6.22;1.80;;;;;;;;;;5113735;28;20092;-78
2024/03/14 13:29:22;;;;;;;2.60;1.42;;;;;;;;;;5113904;28;20023;-78
2024/03/14 13:31:49;;;;;;;2.63;1.63;;;;;;;;;;5113670;28;20024;-77
2024/03/14 13:34:15;;;;;;;3.13;1.48;;;;;;;;;;5114089;28;20366;-77
2024/03/14 13:36:41;;;;;;;1.55;1.17;;;;;;;;;;5113770;28;20390;-77
2024/03/14 13:39:12;;;;;;;10.70;2.70;;;;;;;;;;5115514;28;20019;-77
2024/03/14 13:41:42;;;;;;;2.50;1.10;;;;;;;;;;5114974;28;20016;-78
2024/03/14 13:44:10;;;;;;;2.55;1.00;;;;;;;;;;5113729;28;20050;-78
2024/03/14 13:46:41;;;;;;;4.60;2.10;;;;;;;;;;5113498;28;20539;-77
2024/03/14 13:49:09;;;;;;;4.18;2.00;;;;;;;;;;5115032;28;20460;-77
2024/03/14 13:51:35;;;;;;;6.32;3.55;;;;;;;;;;5113426;28;20066;-78
2024/03/14 13:54:02;;;;;;;3.90;2.30;;;;;;;;;;5113635;28;20023;-78
2024/03/14 13:56:28;;;;;;;7.47;2.88;;;;;;;;;;5113651;28;20031;-78
2024/03/14 13:58:57;;;;;;;7.22;3.33;;;;;;;;;;5113493;28;20026;-78
2024/03/14 14:01:24;;;;;;;6.00;3.45;;;;;;;;;;5113618;28;20486;-78
2024/03/14 14:03:54;;;;;;;7.13;2.97;;;;;;;;;;5113180;28;20024;-78
2024/03/14 14:06:22;;;;;;;4.60;3.17;;;;;;;;;;5113450;28;20035;-78
2024/03/14 14:08:49;;;;;;;5.65;2.70;;;;;;;;;;5113147;28;20016;-78
2024/03/14 14:11:15;;;;;;;4.47;2.80;;;;;;;;;;5113434;28;20026;-77
2024/03/14 14:13:41;;;;;;;4.78;1.42;;;;;;;;;;5113066;28;20386;-78
2024/03/14 14:16:07;;;;;;;5.75;2.95;;;;;;;;;;5113363;28;20031;-77
2024/03/14 14:18:34;;;;;;;7.70;3.00;;;;;;;;;;5113362;28;20118;-78
2024/03/14 14:21:00;;;;;;;5.50;3.03;;;;;;;;;;5114661;28;20463;-77
2024/03/14 14:23:28;;;;;;;6.13;3.45;;;;;;;;;;5112878;28;20114;-78
2024/03/14 14:25:54;;;;;;;8.60;3.03;;;;;;;;;;5112530;28;20032;-78
2024/03/14 14:28:21;;;;;;;3.53;1.85;;;;;;;;;;5112814;28;20031;-77
2024/03/14 14:30:47;;;;;;;3.65;2.28;;;;;;;;;;5114229;28;20035;-78
2024/03/14 14:33:14;;;;;;;7.50;3.40;;;;;;;;;;5112689;28;20024;-77
2024/03/14 14:35:41;;;;;;;4.00;1.48;;;;;;;;;;5112571;28;20027;-79